createdAt,value
2023-05-12T00:00:42.000Z,84.23
2023-05-12T00:01:46.000Z,84.03
2023-05-12T00:02:50.000Z,84.43
2023-05-12T00:03:54.000Z,84.33
2023-05-12T00:04:57.000Z,84.64
2023-05-12T00:06:01.000Z,84.84
2023-05-12T00:07:05.000Z,84.74
2023-05-12T00:08:08.000Z,84.74
2023-05-12T00:09:12.000Z,85.35
2023-05-12T00:10:16.000Z,85.35
2023-05-12T00:11:20.000Z,85.55
2023-05-12T00:12:23.000Z,85.86
2023-05-12T00:13:27.000Z,85.86
2023-05-12T00:14:31.000Z,85.35
2023-05-12T00:15:35.000Z,85.55
2023-05-12T00:16:38.000Z,86.06
2023-05-12T00:17:42.000Z,85.66
2023-05-12T00:18:46.000Z,85.66
2023-05-12T00:19:50.000Z,85.45
2023-05-12T00:20:53.000Z,85.05
2023-05-12T00:21:57.000Z,85.35
2023-05-12T00:23:01.000Z,85.45
2023-05-12T00:24:05.000Z,85.66
2023-05-12T00:25:09.000Z,85.66
2023-05-12T00:26:12.000Z,86.06
2023-05-12T00:27:16.000Z,86.37
2023-05-12T00:28:20.000Z,86.06
2023-05-12T00:29:24.000Z,86.06
2023-05-12T00:30:28.000Z,85.55
2023-05-12T00:31:31.000Z,85.96
2023-05-12T00:32:35.000Z,84.94
2023-05-12T00:33:39.000Z,85.45
2023-05-12T00:34:43.000Z,85.35
2023-05-12T00:35:46.000Z,85.25
2023-05-12T00:36:50.000Z,85.55
2023-05-12T00:37:54.000Z,85.96
2023-05-12T00:38:58.000Z,86.37
2023-05-12T00:40:02.000Z,86.47
2023-05-12T00:41:06.000Z,85.96
2023-05-12T00:42:10.000Z,85.66
2023-05-12T00:43:13.000Z,85.55
2023-05-12T00:44:17.000Z,85.35
2023-05-12T00:45:21.000Z,82.7
2023-05-12T00:46:25.000Z,82.7
2023-05-12T00:47:28.000Z,83.92
2023-05-12T00:48:32.000Z,83.82
2023-05-12T00:49:36.000Z,83.21
2023-05-12T00:50:40.000Z,83.31
2023-05-12T00:51:43.000Z,82.09
2023-05-12T00:52:47.000Z,81.17
2023-05-12T00:53:51.000Z,82.19
2023-05-12T00:54:55.000Z,81.54
2023-05-12T00:55:58.000Z,82.35
2023-05-12T00:57:02.000Z,82.26
2023-05-12T00:58:06.000Z,82.46
2023-05-12T00:59:10.000Z,82.66
2023-05-12T01:00:14.000Z,83.78
2023-05-12T01:01:17.000Z,83.37
2023-05-12T01:02:21.000Z,83.07
2023-05-12T01:03:25.000Z,82.26
2023-05-12T01:04:29.000Z,82.26
2023-05-12T01:05:32.000Z,82.76
2023-05-12T01:06:36.000Z,83.17
2023-05-12T01:07:40.000Z,82.97
2023-05-12T01:08:44.000Z,83.01
2023-05-12T01:09:47.000Z,83.82
2023-05-12T01:10:51.000Z,84.43
2023-05-12T01:11:55.000Z,85.14
2023-05-12T01:12:59.000Z,85.55
2023-05-12T01:14:03.000Z,85.86
2023-05-12T01:15:06.000Z,85.86
2023-05-12T01:16:10.000Z,85.14
2023-05-12T01:17:14.000Z,85.14
2023-05-12T01:18:18.000Z,86.06
2023-05-12T01:19:22.000Z,86.37
2023-05-12T01:20:25.000Z,86.16
2023-05-12T01:21:29.000Z,85.75
2023-05-12T01:22:33.000Z,85.96
2023-05-12T01:23:37.000Z,85.35
2023-05-12T01:24:40.000Z,85.75
2023-05-12T01:25:44.000Z,85.86
2023-05-12T01:26:48.000Z,86.37
2023-05-12T01:27:52.000Z,85.9
2023-05-12T01:28:56.000Z,85.55
2023-05-12T01:29:59.000Z,85.75
2023-05-12T01:31:03.000Z,85.86
2023-05-12T01:32:07.000Z,85.55
2023-05-12T01:33:11.000Z,85.35
2023-05-12T01:34:15.000Z,85.05
2023-05-12T01:35:18.000Z,84.53
2023-05-12T01:36:22.000Z,84.84
2023-05-12T01:37:26.000Z,85.05
2023-05-12T01:38:30.000Z,85.45
2023-05-12T01:39:34.000Z,86.06
2023-05-12T01:40:37.000Z,87.18
2023-05-12T01:41:41.000Z,87.73
2023-05-12T01:42:45.000Z,86.41
2023-05-12T01:43:49.000Z,84.58
2023-05-12T01:44:52.000Z,84.67
2023-05-12T01:45:56.000Z,85.69
2023-05-12T01:47:00.000Z,86.0
2023-05-12T01:48:03.000Z,86.3
2023-05-12T01:49:07.000Z,86.21
2023-05-12T01:50:11.000Z,86.3
2023-05-12T01:51:15.000Z,86.0
2023-05-12T01:52:18.000Z,85.9
2023-05-12T01:53:22.000Z,86.3
2023-05-12T01:54:26.000Z,87.23
2023-05-12T01:55:30.000Z,88.59
2023-05-12T01:56:34.000Z,89.1
2023-05-12T01:57:38.000Z,89.0
2023-05-12T01:58:41.000Z,90.22
2023-05-12T01:59:45.000Z,91.14
2023-05-12T02:00:49.000Z,90.98
2023-05-12T02:01:53.000Z,90.53
2023-05-12T02:02:56.000Z,90.12
2023-05-12T02:04:00.000Z,89.71
2023-05-12T02:05:04.000Z,89.4
2023-05-12T02:06:08.000Z,89.4
2023-05-12T02:07:11.000Z,89.71
2023-05-12T02:08:15.000Z,89.71
2023-05-12T02:09:19.000Z,89.61
2023-05-12T02:10:23.000Z,89.51
2023-05-12T02:11:27.000Z,88.69
2023-05-12T02:12:30.000Z,89.0
2023-05-12T02:13:34.000Z,88.9
2023-05-12T02:14:38.000Z,88.39
2023-05-12T02:15:42.000Z,88.43
2023-05-12T02:16:46.000Z,89.2
2023-05-12T02:17:49.000Z,89.14
2023-05-12T02:18:53.000Z,88.53
2023-05-12T02:19:57.000Z,87.71
2023-05-12T02:21:01.000Z,87.41
2023-05-12T02:22:04.000Z,87.37
2023-05-12T02:23:08.000Z,87.67
2023-05-12T02:24:12.000Z,89.0
2023-05-12T02:25:16.000Z,89.81
2023-05-12T02:26:20.000Z,90.32
2023-05-12T02:27:23.000Z,89.92
2023-05-12T02:28:27.000Z,89.71
2023-05-12T02:29:31.000Z,89.0
2023-05-12T02:30:35.000Z,88.12
2023-05-12T02:31:38.000Z,86.55
2023-05-12T02:32:42.000Z,88.18
2023-05-12T02:33:46.000Z,88.08
2023-05-12T02:34:50.000Z,86.65
2023-05-12T02:35:54.000Z,87.47
2023-05-12T02:36:57.000Z,87.57
2023-05-12T02:38:01.000Z,89.51
2023-05-12T02:39:05.000Z,89.71
2023-05-12T02:40:09.000Z,89.3
2023-05-12T02:41:12.000Z,88.9
2023-05-12T02:42:16.000Z,88.9
2023-05-12T02:43:20.000Z,89.2
2023-05-12T02:44:24.000Z,89.61
2023-05-12T02:45:27.000Z,89.71
2023-05-12T02:46:31.000Z,90.22
2023-05-12T02:47:35.000Z,90.01
2023-05-12T02:48:39.000Z,90.32
2023-05-12T02:49:42.000Z,90.12
2023-05-12T02:50:46.000Z,89.71
2023-05-12T02:51:50.000Z,89.4
2023-05-12T02:52:54.000Z,90.22
2023-05-12T02:53:57.000Z,90.12
2023-05-12T02:55:01.000Z,89.65
2023-05-12T02:56:05.000Z,89.45
2023-05-12T02:57:09.000Z,90.67
2023-05-12T02:58:12.000Z,90.67
2023-05-12T02:59:16.000Z,90.67
2023-05-12T03:00:20.000Z,90.67
2023-05-12T03:01:24.000Z,90.57
2023-05-12T03:02:28.000Z,90.16
2023-05-12T03:03:31.000Z,90.88
2023-05-12T03:04:35.000Z,90.88
2023-05-12T03:05:39.000Z,90.47
2023-05-12T03:06:43.000Z,90.16
2023-05-12T03:07:46.000Z,90.47
2023-05-12T03:08:50.000Z,90.47
2023-05-12T03:09:54.000Z,90.36
2023-05-12T03:10:58.000Z,90.98
2023-05-12T03:12:02.000Z,91.28
2023-05-12T03:13:06.000Z,91.08
2023-05-12T03:14:09.000Z,91.18
2023-05-12T03:15:13.000Z,90.98
2023-05-12T03:16:17.000Z,90.81
2023-05-12T03:17:21.000Z,90.98
2023-05-12T03:18:24.000Z,91.43
2023-05-12T03:19:28.000Z,91.63
2023-05-12T03:20:32.000Z,91.22
2023-05-12T03:21:36.000Z,91.43
2023-05-12T03:22:39.000Z,91.22
2023-05-12T03:23:43.000Z,91.43
2023-05-12T03:24:47.000Z,92.14
2023-05-12T03:25:51.000Z,92.24
2023-05-12T03:26:55.000Z,91.74
2023-05-12T03:27:58.000Z,91.33
2023-05-12T03:29:02.000Z,91.02
2023-05-12T03:30:06.000Z,92.04
2023-05-12T03:31:10.000Z,92.65
2023-05-12T03:32:13.000Z,92.76
2023-05-12T03:33:17.000Z,92.76
2023-05-12T03:34:21.000Z,92.76
2023-05-12T03:35:25.000Z,92.65
2023-05-12T03:36:28.000Z,92.35
2023-05-12T03:37:32.000Z,91.94
2023-05-12T03:38:36.000Z,91.63
2023-05-12T03:39:40.000Z,91.43
2023-05-12T03:40:43.000Z,91.12
2023-05-12T03:41:47.000Z,90.81
2023-05-12T03:42:51.000Z,90.71
2023-05-12T03:43:55.000Z,90.81
2023-05-12T03:44:58.000Z,91.94
2023-05-12T03:46:02.000Z,91.63
2023-05-12T03:47:06.000Z,92.04
2023-05-12T03:48:10.000Z,91.83
2023-05-12T03:49:13.000Z,91.53
2023-05-12T03:50:17.000Z,91.22
2023-05-12T03:51:21.000Z,90.88
2023-05-12T03:52:25.000Z,90.88
2023-05-12T03:53:28.000Z,90.98
2023-05-12T03:54:32.000Z,90.98
2023-05-12T03:55:36.000Z,91.08
2023-05-12T03:56:40.000Z,90.88
2023-05-12T03:57:44.000Z,90.57
2023-05-12T03:58:47.000Z,90.16
2023-05-12T03:59:51.000Z,90.16
2023-05-12T04:00:55.000Z,90.36
2023-05-12T04:01:59.000Z,90.47
2023-05-12T04:03:03.000Z,91.08
2023-05-12T04:04:07.000Z,91.59
2023-05-12T04:05:10.000Z,91.18
2023-05-12T04:06:14.000Z,90.77
2023-05-12T04:07:18.000Z,90.67
2023-05-12T04:08:22.000Z,90.57
2023-05-12T04:09:25.000Z,90.16
2023-05-12T04:10:29.000Z,89.96
2023-05-12T04:11:33.000Z,89.96
2023-05-12T04:12:37.000Z,89.92
2023-05-12T04:13:41.000Z,90.22
2023-05-12T04:14:44.000Z,90.67
2023-05-12T04:15:48.000Z,90.57
2023-05-12T04:16:52.000Z,90.22
2023-05-12T04:17:56.000Z,89.81
2023-05-12T04:19:00.000Z,89.71
2023-05-12T04:20:03.000Z,89.51
2023-05-12T04:21:07.000Z,89.4
2023-05-12T04:22:11.000Z,89.3
2023-05-12T04:23:15.000Z,90.01
2023-05-12T04:24:18.000Z,90.42
2023-05-12T04:25:22.000Z,90.94
2023-05-12T04:26:26.000Z,89.51
2023-05-12T04:27:30.000Z,89.2
2023-05-12T04:28:33.000Z,89.16
2023-05-12T04:29:37.000Z,89.36
2023-05-12T04:30:41.000Z,89.26
2023-05-12T04:31:45.000Z,88.75
2023-05-12T04:32:48.000Z,89.16
2023-05-12T04:33:52.000Z,88.92
2023-05-12T04:34:56.000Z,88.4
2023-05-12T04:36:00.000Z,88.1
2023-05-12T04:37:04.000Z,88.1
2023-05-12T04:38:07.000Z,88.61
2023-05-12T04:39:11.000Z,88.61
2023-05-12T04:40:15.000Z,88.31
2023-05-12T04:41:19.000Z,88.61
2023-05-12T04:42:23.000Z,88.71
2023-05-12T04:43:26.000Z,88.61
2023-05-12T04:44:30.000Z,88.81
2023-05-12T04:45:34.000Z,89.32
2023-05-12T04:46:38.000Z,88.92
2023-05-12T04:47:42.000Z,89.01
2023-05-12T04:48:45.000Z,86.88
2023-05-12T04:49:49.000Z,87.69
2023-05-12T04:50:53.000Z,87.08
2023-05-12T04:51:57.000Z,86.77
2023-05-12T04:53:01.000Z,86.37
2023-05-12T04:54:04.000Z,86.88
2023-05-12T04:55:08.000Z,86.94
2023-05-12T04:56:12.000Z,87.35
2023-05-12T04:57:16.000Z,88.12
2023-05-12T04:58:20.000Z,88.63
2023-05-12T04:59:23.000Z,88.12
2023-05-12T05:00:27.000Z,88.22
2023-05-12T05:01:31.000Z,88.12
2023-05-12T05:02:35.000Z,88.22
2023-05-12T05:03:39.000Z,88.42
2023-05-12T05:04:43.000Z,88.42
2023-05-12T05:05:46.000Z,88.73
2023-05-12T05:06:50.000Z,88.83
2023-05-12T05:07:54.000Z,88.93
2023-05-12T05:08:58.000Z,88.83
2023-05-12T05:10:02.000Z,89.03
2023-05-12T05:11:05.000Z,88.83
2023-05-12T05:12:09.000Z,88.83
2023-05-12T05:13:13.000Z,88.79
2023-05-12T05:14:17.000Z,87.98
2023-05-12T05:15:20.000Z,87.71
2023-05-12T05:16:24.000Z,87.98
2023-05-12T05:17:28.000Z,88.22
2023-05-12T05:18:32.000Z,88.08
2023-05-12T05:19:35.000Z,87.57
2023-05-12T05:20:39.000Z,86.8
2023-05-12T05:21:43.000Z,87.2
2023-05-12T05:22:47.000Z,87.47
2023-05-12T05:23:50.000Z,87.06
2023-05-12T05:24:54.000Z,86.86
2023-05-12T05:25:58.000Z,85.64
2023-05-12T05:27:02.000Z,86.35
2023-05-12T05:28:05.000Z,86.15
2023-05-12T05:29:09.000Z,85.94
2023-05-12T05:30:13.000Z,85.7
2023-05-12T05:31:17.000Z,84.99
2023-05-12T05:32:21.000Z,85.6
2023-05-12T05:33:24.000Z,85.7
2023-05-12T05:34:28.000Z,85.9
2023-05-12T05:35:32.000Z,85.9
2023-05-12T05:36:36.000Z,85.66
2023-05-12T05:37:39.000Z,85.46
2023-05-12T05:38:43.000Z,85.15
2023-05-12T05:39:47.000Z,85.11
2023-05-12T05:40:51.000Z,84.6
2023-05-12T05:41:54.000Z,84.4
2023-05-12T05:42:58.000Z,84.09
2023-05-12T05:44:02.000Z,84.09
2023-05-12T05:45:06.000Z,84.46
2023-05-12T05:46:10.000Z,83.45
2023-05-12T05:47:14.000Z,83.14
2023-05-12T05:48:17.000Z,83.14
2023-05-12T05:49:21.000Z,83.24
2023-05-12T05:50:25.000Z,82.84
2023-05-12T05:51:29.000Z,83.14
2023-05-12T05:52:33.000Z,83.34
2023-05-12T05:53:36.000Z,83.24
2023-05-12T05:54:40.000Z,82.84
2023-05-12T05:55:44.000Z,83.61
2023-05-12T05:56:48.000Z,82.7
2023-05-12T05:57:52.000Z,82.29
2023-05-12T05:58:55.000Z,82.8
2023-05-12T05:59:59.000Z,82.5
2023-05-12T06:01:03.000Z,82.9
2023-05-12T06:02:07.000Z,81.54
2023-05-12T06:03:11.000Z,83.06
2023-05-12T06:04:15.000Z,81.44
2023-05-12T06:05:18.000Z,81.04
2023-05-12T06:06:22.000Z,81.34
2023-05-12T06:07:26.000Z,81.54
2023-05-12T06:08:30.000Z,80.83
2023-05-12T06:09:33.000Z,80.93
2023-05-12T06:10:37.000Z,79.61
2023-05-12T06:11:41.000Z,80.53
2023-05-12T06:12:45.000Z,80.53
2023-05-12T06:13:48.000Z,81.1
2023-05-12T06:14:52.000Z,79.54
2023-05-12T06:15:56.000Z,80.01
2023-05-12T06:17:00.000Z,79.87
2023-05-12T06:18:04.000Z,79.73
2023-05-12T06:19:07.000Z,79.69
2023-05-12T06:20:11.000Z,78.44
2023-05-12T06:21:15.000Z,77.6
2023-05-12T06:22:19.000Z,74.4
2023-05-12T06:23:22.000Z,74.8
2023-05-12T06:24:26.000Z,75.04
2023-05-12T06:25:30.000Z,75.85
2023-05-12T06:26:34.000Z,76.05
2023-05-12T06:27:38.000Z,75.45
2023-05-12T06:28:41.000Z,76.02
2023-05-12T06:29:45.000Z,76.48
2023-05-12T06:30:49.000Z,75.68
2023-05-12T06:31:53.000Z,75.57
2023-05-12T06:32:56.000Z,75.17
2023-05-12T06:34:00.000Z,75.01
2023-05-12T06:35:04.000Z,74.7
2023-05-12T06:36:08.000Z,74.26
2023-05-12T06:37:12.000Z,75.1
2023-05-12T06:38:15.000Z,73.59
2023-05-12T06:39:19.000Z,73.49
2023-05-12T06:40:23.000Z,75.81
2023-05-12T06:41:27.000Z,76.18
2023-05-12T06:42:30.000Z,75.44
2023-05-12T06:43:34.000Z,74.13
2023-05-12T06:44:38.000Z,72.95
2023-05-12T06:45:42.000Z,73.22
2023-05-12T06:46:46.000Z,72.07
2023-05-12T06:47:49.000Z,71.03
2023-05-12T06:48:53.000Z,72.2
2023-05-12T06:49:57.000Z,70.76
2023-05-12T06:51:01.000Z,70.63
2023-05-12T06:52:05.000Z,69.42
2023-05-12T06:53:09.000Z,68.68
2023-05-12T06:54:13.000Z,68.88
2023-05-12T06:55:16.000Z,68.68
2023-05-12T06:56:20.000Z,68.68
2023-05-12T06:57:24.000Z,67.98
2023-05-12T06:58:28.000Z,67.68
2023-05-12T06:59:31.000Z,67.04
2023-05-12T07:00:35.000Z,66.77
2023-05-12T07:01:39.000Z,69.09
2023-05-12T07:02:43.000Z,67.41
2023-05-12T07:03:46.000Z,68.21
2023-05-12T07:04:50.000Z,69.05
2023-05-12T07:05:54.000Z,70.09
2023-05-12T07:06:58.000Z,68.37
2023-05-12T07:08:01.000Z,67.97
2023-05-12T07:09:05.000Z,69.31
2023-05-12T07:10:09.000Z,71.67
2023-05-12T07:11:13.000Z,72.24
2023-05-12T07:12:16.000Z,70.73
2023-05-12T07:13:20.000Z,71.37
2023-05-12T07:14:24.000Z,71.77
2023-05-12T07:15:28.000Z,70.49
2023-05-12T07:16:31.000Z,70.46
2023-05-12T07:17:35.000Z,70.66
2023-05-12T07:18:39.000Z,71.17
2023-05-12T07:19:43.000Z,70.56
2023-05-12T07:20:46.000Z,70.66
2023-05-12T07:21:50.000Z,71.47
2023-05-12T07:22:54.000Z,70.89
2023-05-12T07:23:58.000Z,71.37
2023-05-12T07:25:02.000Z,71.87
2023-05-12T07:26:05.000Z,70.46
2023-05-12T07:27:09.000Z,69.78
2023-05-12T07:28:13.000Z,69.58
2023-05-12T07:29:17.000Z,70.49
2023-05-12T07:30:21.000Z,72.88
2023-05-12T07:31:24.000Z,71.77
2023-05-12T07:32:28.000Z,70.46
2023-05-12T07:33:32.000Z,71.23
2023-05-12T07:34:36.000Z,70.26
2023-05-12T07:35:40.000Z,70.26
2023-05-12T07:36:44.000Z,70.83
2023-05-12T07:37:47.000Z,71.73
2023-05-12T07:38:51.000Z,70.62
2023-05-12T07:39:55.000Z,70.49
2023-05-12T07:40:59.000Z,69.18
2023-05-12T07:42:02.000Z,70.49
2023-05-12T07:43:06.000Z,70.69
2023-05-12T07:44:10.000Z,69.68
2023-05-12T07:45:14.000Z,70.46
2023-05-12T07:46:18.000Z,71.06
2023-05-12T07:47:21.000Z,72.07
2023-05-12T07:48:25.000Z,71.67
2023-05-12T07:49:29.000Z,70.36
2023-05-12T07:50:33.000Z,69.65
2023-05-12T07:51:37.000Z,67.33
2023-05-12T07:52:40.000Z,68.14
2023-05-12T07:53:44.000Z,69.15
2023-05-12T07:54:48.000Z,68.54
2023-05-12T07:55:52.000Z,67.71
2023-05-12T07:56:55.000Z,67.43
2023-05-12T07:57:59.000Z,67.74
2023-05-12T07:59:03.000Z,67.0
2023-05-12T08:00:07.000Z,65.52
2023-05-12T08:01:10.000Z,66.5
2023-05-12T08:02:14.000Z,65.22
2023-05-12T08:03:18.000Z,65.72
2023-05-12T08:04:22.000Z,64.51
2023-05-12T08:05:25.000Z,64.51
2023-05-12T08:06:29.000Z,64.89
2023-05-12T08:07:33.000Z,65.79
2023-05-12T08:08:37.000Z,65.39
2023-05-12T08:09:41.000Z,64.48
2023-05-12T08:10:44.000Z,67.1
2023-05-12T08:11:48.000Z,65.89
2023-05-12T08:12:52.000Z,65.39
2023-05-12T08:13:55.000Z,66.36
2023-05-12T08:14:59.000Z,66.06
2023-05-12T08:16:03.000Z,65.96
2023-05-12T08:17:07.000Z,65.83
2023-05-12T08:18:11.000Z,65.42
2023-05-12T08:19:15.000Z,65.62
2023-05-12T08:20:18.000Z,65.12
2023-05-12T08:21:22.000Z,61.87
2023-05-12T08:22:26.000Z,62.98
2023-05-12T08:23:30.000Z,62.88
2023-05-12T08:24:34.000Z,63.39
2023-05-12T08:25:37.000Z,64.06
2023-05-12T08:26:41.000Z,62.55
2023-05-12T08:27:45.000Z,63.85
2023-05-12T08:28:49.000Z,63.15
2023-05-12T08:29:52.000Z,61.65
2023-05-12T08:30:56.000Z,61.54
2023-05-12T08:32:00.000Z,63.05
2023-05-12T08:33:04.000Z,64.26
2023-05-12T08:34:08.000Z,62.02
2023-05-12T08:35:12.000Z,61.51
2023-05-12T08:36:16.000Z,61.69
2023-05-12T08:37:19.000Z,62.89
2023-05-12T08:38:23.000Z,65.07
2023-05-12T08:39:27.000Z,63.36
2023-05-12T08:40:31.000Z,63.33
2023-05-12T08:41:35.000Z,61.13
2023-05-12T08:42:38.000Z,59.72
2023-05-12T08:43:42.000Z,62.56
2023-05-12T08:44:46.000Z,60.96
2023-05-12T08:45:50.000Z,62.16
2023-05-12T08:46:53.000Z,60.65
2023-05-12T08:47:57.000Z,60.05
2023-05-12T08:49:01.000Z,62.56
2023-05-12T08:50:05.000Z,61.46
2023-05-12T08:51:08.000Z,60.62
2023-05-12T08:52:12.000Z,62.93
2023-05-12T08:53:16.000Z,58.69
2023-05-12T08:54:20.000Z,58.39
2023-05-12T08:55:23.000Z,59.72
2023-05-12T08:56:27.000Z,61.52
2023-05-12T08:57:31.000Z,62.57
2023-05-12T08:58:35.000Z,62.14
2023-05-12T08:59:38.000Z,59.41
2023-05-12T09:00:42.000Z,61.41
2023-05-12T09:01:46.000Z,57.37
2023-05-12T09:02:50.000Z,56.4
2023-05-12T09:03:53.000Z,59.03
2023-05-12T09:04:57.000Z,60.84
2023-05-12T09:06:01.000Z,56.73
2023-05-12T09:07:05.000Z,58.86
2023-05-12T09:08:08.000Z,57.56
2023-05-12T09:09:12.000Z,57.23
2023-05-12T09:10:16.000Z,59.64
2023-05-12T09:11:20.000Z,56.7
2023-05-12T09:12:23.000Z,59.13
2023-05-12T09:13:27.000Z,60.11
2023-05-12T09:14:31.000Z,59.0
2023-05-12T09:15:35.000Z,57.73
2023-05-12T09:16:38.000Z,60.11
2023-05-12T09:17:42.000Z,58.48
2023-05-12T09:18:46.000Z,56.6
2023-05-12T09:19:50.000Z,57.6
2023-05-12T09:20:54.000Z,56.8
2023-05-12T09:21:58.000Z,56.98
2023-05-12T09:23:01.000Z,55.15
2023-05-12T09:24:05.000Z,56.27
2023-05-12T09:25:09.000Z,55.98
2023-05-12T09:26:13.000Z,56.74
2023-05-12T09:27:17.000Z,58.05
2023-05-12T09:28:21.000Z,57.85
2023-05-12T09:29:24.000Z,56.45
2023-05-12T09:30:28.000Z,55.74
2023-05-12T09:31:32.000Z,56.17
2023-05-12T09:32:36.000Z,56.07
2023-05-12T09:33:40.000Z,56.15
2023-05-12T09:34:43.000Z,54.42
2023-05-12T09:35:47.000Z,56.62
2023-05-12T09:36:51.000Z,57.89
2023-05-12T09:37:55.000Z,54.69
2023-05-12T09:38:59.000Z,54.32
2023-05-12T09:40:02.000Z,53.62
2023-05-12T09:41:06.000Z,54.12
2023-05-12T09:42:10.000Z,53.02
2023-05-12T09:43:14.000Z,55.52
2023-05-12T09:44:17.000Z,54.29
2023-05-12T09:45:21.000Z,53.39
2023-05-12T09:46:25.000Z,52.52
2023-05-12T09:47:29.000Z,51.5
2023-05-12T09:48:32.000Z,53.89
2023-05-12T09:49:36.000Z,53.47
2023-05-12T09:50:40.000Z,53.77
2023-05-12T09:51:44.000Z,53.97
2023-05-12T09:52:47.000Z,52.92
2023-05-12T09:53:51.000Z,52.12
2023-05-12T09:54:55.000Z,52.0
2023-05-12T09:55:59.000Z,51.37
2023-05-12T09:57:02.000Z,53.19
2023-05-12T09:58:06.000Z,59.3
2023-05-12T09:59:10.000Z,58.26
2023-05-12T10:00:14.000Z,57.26
2023-05-12T10:01:18.000Z,54.17
2023-05-12T10:02:21.000Z,53.64
2023-05-12T10:03:25.000Z,54.34
2023-05-12T10:04:29.000Z,54.84
2023-05-12T10:05:33.000Z,52.72
2023-05-12T10:06:36.000Z,53.04
2023-05-12T10:07:40.000Z,51.72
2023-05-12T10:08:44.000Z,50.2
2023-05-12T10:09:48.000Z,54.99
2023-05-12T10:10:51.000Z,53.77
2023-05-12T10:11:55.000Z,55.47
2023-05-12T10:12:59.000Z,53.47
2023-05-12T10:14:03.000Z,51.94
2023-05-12T10:15:07.000Z,52.74
2023-05-12T10:16:10.000Z,50.02
2023-05-12T10:17:14.000Z,49.7
2023-05-12T10:18:18.000Z,53.49
2023-05-12T10:19:22.000Z,52.79
2023-05-12T10:20:26.000Z,50.82
2023-05-12T10:21:29.000Z,52.02
2023-05-12T10:22:33.000Z,53.52
2023-05-12T10:23:37.000Z,54.19
2023-05-12T10:24:41.000Z,50.49
2023-05-12T10:25:44.000Z,49.82
2023-05-12T10:26:48.000Z,53.92
2023-05-12T10:27:52.000Z,53.49
2023-05-12T10:28:56.000Z,51.4
2023-05-12T10:30:00.000Z,50.52
2023-05-12T10:31:03.000Z,52.34
2023-05-12T10:32:07.000Z,53.84
2023-05-12T10:33:11.000Z,52.29
2023-05-12T10:34:15.000Z,50.79
2023-05-12T10:35:19.000Z,50.49
2023-05-12T10:36:22.000Z,49.7
2023-05-12T10:37:26.000Z,51.1
2023-05-12T10:38:30.000Z,53.39
2023-05-12T10:39:34.000Z,51.57
2023-05-12T10:40:37.000Z,48.43
2023-05-12T10:41:41.000Z,51.15
2023-05-12T10:42:45.000Z,50.04
2023-05-12T10:43:49.000Z,51.42
2023-05-12T10:44:52.000Z,52.12
2023-05-12T10:45:56.000Z,52.37
2023-05-12T10:47:00.000Z,53.14
2023-05-12T10:48:04.000Z,50.85
2023-05-12T10:49:07.000Z,50.85
2023-05-12T10:50:11.000Z,53.74
2023-05-12T10:51:15.000Z,53.36
2023-05-12T10:52:19.000Z,50.6
2023-05-12T10:53:22.000Z,54.84
2023-05-12T10:54:26.000Z,53.34
2023-05-12T10:55:30.000Z,54.64
2023-05-12T10:56:34.000Z,53.74
2023-05-12T10:57:37.000Z,52.55
2023-05-12T10:58:41.000Z,54.11
2023-05-12T10:59:45.000Z,52.32
2023-05-12T11:00:49.000Z,53.04
2023-05-12T11:01:53.000Z,51.87
2023-05-12T11:02:56.000Z,53.19
2023-05-12T11:04:00.000Z,56.49
2023-05-12T11:05:04.000Z,53.89
2023-05-12T11:06:08.000Z,55.54
2023-05-12T11:07:12.000Z,53.89
2023-05-12T11:08:16.000Z,52.47
2023-05-12T11:09:19.000Z,46.33
2023-05-12T11:10:23.000Z,52.64
2023-05-12T11:11:27.000Z,51.7
2023-05-12T11:12:31.000Z,49.98
2023-05-12T11:13:35.000Z,50.4
2023-05-12T11:14:39.000Z,52.07
2023-05-12T11:15:42.000Z,51.35
2023-05-12T11:16:46.000Z,51.75
2023-05-12T11:17:50.000Z,48.97
2023-05-12T11:18:54.000Z,49.23
2023-05-12T11:19:57.000Z,46.86
2023-05-12T11:21:01.000Z,52.17
2023-05-12T11:22:05.000Z,48.95
2023-05-12T11:23:09.000Z,49.87
2023-05-12T11:24:12.000Z,50.37
2023-05-12T11:25:16.000Z,51.79
2023-05-12T11:26:20.000Z,49.72
2023-05-12T11:27:24.000Z,52.87
2023-05-12T11:28:28.000Z,53.87
2023-05-12T11:29:31.000Z,53.27
2023-05-12T11:30:35.000Z,53.94
2023-05-12T11:31:39.000Z,51.07
2023-05-12T11:32:42.000Z,53.59
2023-05-12T11:33:46.000Z,51.69
2023-05-12T11:34:50.000Z,52.52
2023-05-12T11:35:54.000Z,55.05
2023-05-12T11:36:58.000Z,54.52
2023-05-12T11:38:01.000Z,53.82
2023-05-12T11:39:05.000Z,54.52
2023-05-12T11:40:09.000Z,57.92
2023-05-12T11:41:13.000Z,53.87
2023-05-12T11:42:16.000Z,54.82
2023-05-12T11:43:20.000Z,54.57
2023-05-12T11:44:24.000Z,52.19
2023-05-12T11:45:28.000Z,51.22
2023-05-12T11:46:32.000Z,51.92
2023-05-12T11:47:35.000Z,49.85
2023-05-12T11:48:39.000Z,49.48
2023-05-12T11:49:43.000Z,53.42
2023-05-12T11:50:47.000Z,49.65
2023-05-12T11:51:51.000Z,52.55
2023-05-12T11:52:54.000Z,50.87
2023-05-12T11:53:58.000Z,53.87
2023-05-12T11:55:02.000Z,54.06
2023-05-12T11:56:06.000Z,52.94
2023-05-12T11:57:09.000Z,52.84
2023-05-12T11:58:13.000Z,53.81
2023-05-12T11:59:17.000Z,51.15
2023-05-12T12:00:21.000Z,53.04
2023-05-12T12:01:25.000Z,52.02
2023-05-12T12:02:28.000Z,51.0
2023-05-12T12:03:32.000Z,51.79
2023-05-12T12:04:36.000Z,51.65
2023-05-12T12:05:40.000Z,48.54
2023-05-12T12:06:44.000Z,49.53
2023-05-12T12:07:48.000Z,45.65
2023-05-12T12:08:51.000Z,48.02
2023-05-12T12:09:55.000Z,47.92
2023-05-12T12:10:59.000Z,46.35
2023-05-12T12:12:03.000Z,46.97
2023-05-12T12:13:06.000Z,46.54
2023-05-12T12:14:10.000Z,45.81
2023-05-12T12:15:14.000Z,46.75
2023-05-12T12:16:18.000Z,50.65
2023-05-12T12:17:21.000Z,51.37
2023-05-12T12:18:25.000Z,51.39
2023-05-12T12:19:29.000Z,50.52
2023-05-12T12:20:33.000Z,52.62
2023-05-12T12:21:36.000Z,54.47
2023-05-12T12:22:40.000Z,49.07
2023-05-12T12:23:44.000Z,50.17
2023-05-12T12:24:48.000Z,51.17
2023-05-12T12:25:51.000Z,50.47
2023-05-12T12:26:55.000Z,50.79
2023-05-12T12:27:59.000Z,50.04
2023-05-12T12:29:03.000Z,48.97
2023-05-12T12:30:07.000Z,48.53
2023-05-12T12:31:10.000Z,52.07
2023-05-12T12:32:14.000Z,46.25
2023-05-12T12:33:18.000Z,46.57
2023-05-12T12:34:22.000Z,48.66
2023-05-12T12:35:25.000Z,49.48
2023-05-12T12:36:29.000Z,48.88
2023-05-12T12:37:33.000Z,50.9
2023-05-12T12:38:37.000Z,47.24
2023-05-12T12:39:40.000Z,49.25
2023-05-12T12:40:44.000Z,49.77
2023-05-12T12:41:48.000Z,48.9
2023-05-12T12:42:52.000Z,47.63
2023-05-12T12:43:55.000Z,47.95
2023-05-12T12:44:59.000Z,48.37
2023-05-12T12:46:03.000Z,53.47
2023-05-12T12:47:07.000Z,51.57
2023-05-12T12:48:11.000Z,52.27
2023-05-12T12:49:15.000Z,54.39
2023-05-12T12:50:23.000Z,53.89
2023-05-12T12:51:27.000Z,54.39
2023-05-12T12:52:31.000Z,54.62
2023-05-12T12:53:34.000Z,52.14
2023-05-12T12:54:38.000Z,54.44
2023-05-12T12:55:42.000Z,51.07
2023-05-12T12:56:46.000Z,55.67
2023-05-12T12:57:49.000Z,54.74
2023-05-12T12:58:53.000Z,56.65
2023-05-12T12:59:57.000Z,55.74
2023-05-12T13:01:01.000Z,55.35
2023-05-12T13:02:05.000Z,56.35
2023-05-12T13:03:08.000Z,55.27
2023-05-12T13:04:12.000Z,54.6
2023-05-12T13:05:16.000Z,58.37
2023-05-12T13:06:20.000Z,56.87
2023-05-12T13:07:24.000Z,55.37
2023-05-12T13:08:27.000Z,57.48
2023-05-12T13:09:31.000Z,55.98
2023-05-12T13:10:35.000Z,56.87
2023-05-12T13:11:39.000Z,57.35
2023-05-12T13:12:43.000Z,56.45
2023-05-12T13:13:47.000Z,56.42
2023-05-12T13:14:50.000Z,57.42
2023-05-12T13:15:54.000Z,57.02
2023-05-12T13:16:58.000Z,54.52
2023-05-12T13:18:02.000Z,56.12
2023-05-12T13:19:06.000Z,54.72
2023-05-12T13:20:09.000Z,54.72
2023-05-12T13:21:13.000Z,56.24
2023-05-12T13:22:17.000Z,56.02
2023-05-12T13:23:21.000Z,54.32
2023-05-12T13:24:25.000Z,54.52
2023-05-12T13:25:28.000Z,55.32
2023-05-12T13:26:32.000Z,54.62
2023-05-12T13:27:36.000Z,53.79
2023-05-12T13:28:40.000Z,55.59
2023-05-12T13:29:44.000Z,56.79
2023-05-12T13:30:48.000Z,56.57
2023-05-12T13:31:51.000Z,55.77
2023-05-12T13:32:55.000Z,54.67
2023-05-12T13:33:59.000Z,54.37
2023-05-12T13:35:03.000Z,53.39
2023-05-12T13:36:06.000Z,55.19
2023-05-12T13:37:10.000Z,54.19
2023-05-12T13:38:14.000Z,55.49
2023-05-12T13:39:17.000Z,55.77
2023-05-12T13:40:21.000Z,55.87
2023-05-12T13:41:25.000Z,55.66
2023-05-12T13:42:29.000Z,56.14
2023-05-12T13:43:33.000Z,55.64
2023-05-12T13:44:36.000Z,52.25